Time;durP1;ratioP1;P1;durP2;ratioP2;P2;SDS_P1;SDS_P2;PMS_P1;PMS_P2;Temp;Humidity;BMP_temperature;BMP_pressure;BME280_temperature;BME280_humidity;BME280_pressure;Samples;Min_cycle;Max_cycle;Signal;HPM_P1;HPM_P2
2023/06/05 00:13:38;;;;;;;6.43;1.80;;;;;;;19.37;nan;100849.44;31589038;28;20048;-72
2023/06/05 00:28:40;;;;;;;3.40;1.40;;;;;;;19.51;nan;100850.06;31594843;28;20399;-71
2023/06/05 00:43:42;;;;;;;3.50;1.63;;;;;;;19.37;nan;100849.44;31600663;28;20137;-71
2023/06/05 00:58:45;;;;;;;4.23;1.30;;;;;;;19.16;nan;100844.84;31593063;28;20505;-71
2023/06/05 01:13:57;;;;;;;3.30;1.40;;;;;;;19.09;nan;100850.69;31574037;28;20047;-71
2023/06/05 01:29:05;;;;;;;4.80;1.57;;;;;;;19.16;nan;100850.34;31578914;28;20105;-72
2023/06/05 01:44:08;;;;;;;6.23;2.17;;;;;;;19.01;nan;100849.44;31601182;28;20489;-73
2023/06/05 01:59:10;;;;;;;8.33;2.07;;;;;;;18.95;nan;100857.53;31608435;28;20111;-71
2023/06/05 02:14:12;;;;;;;4.10;2.43;;;;;;;18.93;nan;100861.97;31578080;28;20440;-73
2023/06/05 02:29:15;;;;;;;5.83;2.20;;;;;;;19.18;nan;100869.16;31610862;28;20060;-72
2023/06/05 02:44:17;;;;;;;11.70;3.20;;;;;;;19.47;nan;100874.19;31604351;28;20051;-72
2023/06/05 02:59:22;;;;;;;5.57;2.83;;;;;;;19.56;nan;100871.47;31609628;28;20305;-71
2023/06/05 03:14:26;;;;;;;5.73;3.47;;;;;;;19.99;nan;100870.28;31576286;28;20390;-71
2023/06/05 03:29:28;;;;;;;9.47;4.30;;;;;;;20.26;nan;100867.44;31582062;28;20085;-72
2023/06/05 03:44:30;;;;;;;10.70;6.23;;;;;;;20.74;nan;100868.28;31611670;28;20067;-72
2023/06/05 03:59:33;;;;;;;8.83;3.67;;;;;;;21.31;nan;100870.16;31575297;28;20108;-73
2023/06/05 04:14:36;;;;;;;9.20;3.37;;;;;;;21.76;nan;100871.69;31590650;28;20055;-73
2023/06/05 04:29:38;;;;;;;18.13;6.15;;;;;;;22.46;nan;100877.31;31573678;28;20052;-72
2023/06/05 04:44:40;;;;;;;16.30;5.35;;;;;;;23.17;nan;100872.44;31591634;28;20043;-72
2023/06/05 04:59:43;;;;;;;15.65;6.28;;;;;;;24.04;nan;100876.56;31604746;28;20052;-73
2023/06/05 05:14:46;;;;;;;17.08;6.70;;;;;;;24.61;nan;100892.34;31568451;28;20413;-72
2023/06/05 05:29:48;;;;;;;11.02;4.72;;;;;;;25.56;nan;100880.78;31600707;28;20060;-73
2023/06/05 05:44:50;;;;;;;5.30;2.15;;;;;;;26.20;nan;100881.84;31631021;28;20059;-73
2023/06/05 05:59:52;;;;;;;4.93;2.53;;;;;;;26.67;nan;100883.53;31630121;28;20056;-72
2023/06/05 06:14:55;;;;;;;9.15;3.30;;;;;;;26.96;nan;100886.97;31620722;28;20457;-72
2023/06/05 06:29:57;;;;;;;10.30;4.33;;;;;;;27.47;nan;100885.41;31605616;28;20059;-73
2023/06/05 06:44:59;;;;;;;7.57;3.60;;;;;;;27.64;nan;100879.75;31606749;28;20421;-74
2023/06/05 07:00:03;;;;;;;9.40;3.10;;;;;;;28.38;nan;100884.16;31609672;28;20078;-73
2023/06/05 07:15:06;;;;;;;5.60;2.90;;;;;;;28.46;nan;100876.72;31598809;28;20595;-72
2023/06/05 07:30:08;;;;;;;6.37;2.77;;;;;;;28.67;nan;100872.16;31603974;28;20509;-72
2023/06/05 07:45:11;;;;;;;5.17;2.60;;;;;;;29.33;nan;100875.38;31614923;28;20063;-72
2023/06/05 08:00:13;;;;;;;5.00;1.80;;;;;;;29.74;nan;100882.66;31584193;28;20055;-80
2023/06/05 08:15:15;;;;;;;3.95;1.40;;;;;;;29.82;nan;100880.75;31600122;28;20048;-79
2023/06/05 08:30:17;;;;;;;2.87;1.63;;;;;;;29.93;nan;100902.19;31576122;28;20056;-78
2023/06/05 08:45:20;;;;;;;4.68;2.17;;;;;;;30.58;nan;100887.56;31582231;28;20045;-82
2023/06/05 09:00:23;;;;;;;2.10;1.60;;;;;;;31.04;nan;100876.91;31561945;28;20039;-78
2023/06/05 09:15:30;;;;;;;7.38;1.50;;;;;;;31.13;nan;100873.69;31573196;28;20055;-80
2023/06/05 09:30:32;;;;;;;3.75;2.17;;;;;;;31.56;nan;100872.44;31571692;28;20056;-79
2023/06/05 09:45:43;;;;;;;3.03;1.60;;;;;;;31.96;nan;100850.53;31605986;28;20055;-79
2023/06/05 10:00:46;;;;;;;2.33;1.00;;;;;;;32.39;nan;100852.69;31578041;28;20056;-79
2023/06/05 10:15:52;;;;;;;2.60;1.20;;;;;;;32.82;nan;100849.94;31613742;28;20048;-78
2023/06/05 10:31:15;;;;;;;4.25;2.72;;;;;;;33.25;nan;100839.94;31609125;28;20048;-79
2023/06/05 10:46:26;;;;;;;2.55;1.17;;;;;;;33.44;nan;100823.47;31600036;28;20055;-80
2023/06/05 11:01:29;;;;;;;2.33;0.77;;;;;;;33.13;nan;100819.06;31603283;28;20504;-79
2023/06/05 11:16:33;;;;;;;3.25;0.73;;;;;;;32.27;nan;100800.97;31586232;28;20051;-77
2023/06/05 11:31:35;;;;;;;9.02;1.33;;;;;;;30.73;nan;100797.31;31613306;28;20059;-76
2023/06/05 11:46:40;;;;;;;6.90;3.55;;;;;;;29.77;nan;100808.81;31592502;28;20505;-78
2023/06/05 12:01:44;;;;;;;4.40;1.10;;;;;;;29.35;nan;100799.34;31558963;28;20048;-75
2023/06/05 12:16:46;;;;;;;1.45;1.20;;;;;;;28.95;nan;100787.25;31613843;28;20048;-77
2023/06/05 12:31:48;;;;;;;1.40;0.90;;;;;;;28.25;nan;100786.38;31593777;28;20052;-76
2023/06/05 12:46:50;;;;;;;1.90;1.10;;;;;;;28.26;nan;100791.44;31581900;28;20047;-78
2023/06/05 13:01:53;;;;;;;3.37;1.13;;;;;;;28.35;nan;100779.13;31579679;28;20105;-74
2023/06/05 13:16:56;;;;;;;11.17;5.43;;;;;;;28.24;nan;100779.28;31602285;28;20520;-76
2023/06/05 13:31:58;;;;;;;5.70;2.00;;;;;;;28.14;nan;100774.00;31583906;28;20106;-77
2023/06/05 13:47:03;;;;;;;2.80;1.23;;;;;;;28.22;nan;100765.09;31610311;28;20090;-77
2023/06/05 14:02:06;;;;;;;2.30;1.23;;;;;;;28.01;nan;100768.34;31680951;28;20051;-78
2023/06/05 14:17:10;;;;;;;4.70;2.20;;;;;;;27.62;nan;100756.81;31596823;28;20113;-78
2023/06/05 14:32:12;;;;;;;4.63;1.60;;;;;;;27.73;nan;100753.91;31587731;28;20064;-78
2023/06/05 14:47:15;;;;;;;3.43;2.20;;;;;;;27.57;nan;100738.06;31621865;28;20048;-77
2023/06/05 15:02:21;;;;;;;3.93;1.23;;;;;;;27.26;nan;100754.03;31632538;28;20048;-81
2023/06/05 15:17:24;;;;;;;1.67;1.38;;;;;;;27.23;nan;100746.72;31564337;28;20063;-80
2023/06/05 15:32:29;;;;;;;2.10;1.00;;;;;;;27.24;nan;100748.22;31598961;28;20506;-85
2023/06/05 15:47:31;;;;;;;6.75;1.60;;;;;;;26.96;nan;100754.00;31590404;28;20098;-83
2023/06/05 16:02:33;;;;;;;5.57;1.40;;;;;;;27.09;nan;100753.44;31600293;28;20059;-83
2023/06/05 16:17:38;;;;;;;5.83;3.07;;;;;;;26.92;nan;100777.84;31622683;28;20047;-79
2023/06/05 16:32:40;;;;;;;14.15;7.53;;;;;;;26.57;nan;100770.91;31618978;28;20055;-80
2023/06/05 16:47:43;;;;;;;2.92;1.58;;;;;;;26.38;nan;100775.56;31596521;28;20426;-79
2023/06/05 17:02:45;;;;;;;7.45;4.40;;;;;;;26.14;nan;100767.78;31528155;28;20057;-80
2023/06/05 17:17:47;;;;;;;6.22;2.17;;;;;;;25.89;nan;100779.97;31588276;28;20102;-80
2023/06/05 17:32:49;;;;;;;17.83;8.73;;;;;;;25.81;nan;100785.28;31543408;28;20449;-81
2023/06/05 17:47:52;;;;;;;7.25;3.42;;;;;;;25.43;nan;100804.25;31588214;28;20414;-75
2023/06/05 18:02:54;;;;;;;4.97;2.13;;;;;;;25.26;nan;100820.16;31556271;28;20055;-78
2023/06/05 18:17:56;;;;;;;3.53;1.50;;;;;;;25.04;nan;100826.38;31562276;28;20136;-77
2023/06/05 18:32:59;;;;;;;3.08;1.50;;;;;;;24.98;nan;100849.88;31596157;28;20067;-79
2023/06/05 18:48:03;;;;;;;2.80;1.60;;;;;;;24.78;nan;100843.22;31640460;28;20055;-77
2023/06/05 19:03:08;;;;;;;37.65;17.50;;;;;;;24.36;nan;100857.13;31615218;28;20052;-88
2023/06/05 19:18:10;;;;;;;6.35;3.10;;;;;;;24.22;nan;100858.78;31609963;28;20044;-84
2023/06/05 19:33:12;;;;;;;7.80;2.70;;;;;;;24.03;nan;100852.88;31627215;28;20063;-85
2023/06/05 19:48:15;;;;;;;8.55;2.92;;;;;;;23.79;nan;100860.75;31606522;28;20173;-79
2023/06/05 20:03:17;;;;;;;6.95;2.88;;;;;;;23.53;nan;100865.56;31595509;28;20048;-80
2023/06/05 20:18:19;;;;;;;12.63;3.83;;;;;;;23.41;nan;100870.19;31568040;28;20405;-78
2023/06/05 20:33:22;;;;;;;11.38;4.32;;;;;;;23.59;nan;100869.16;31617578;28;20056;-79
2023/06/05 20:48:25;;;;;;;10.90;3.47;;;;;;;23.60;nan;100887.28;31599815;28;20081;-79
2023/06/05 21:03:27;;;;;;;6.00;2.83;;;;;;;23.39;nan;100878.22;31593910;28;20106;-79
2023/06/05 21:18:30;;;;;;;3.65;2.17;;;;;;;23.15;nan;100886.03;31578106;28;20056;-79
2023/06/05 21:33:35;;;;;;;3.92;2.05;;;;;;;23.03;nan;100896.22;31594984;28;23622;-78
2023/06/05 21:48:37;;;;;;;6.63;2.17;;;;;;;22.76;nan;100881.50;31600075;28;20056;-78
2023/06/05 22:03:40;;;;;;;6.00;2.30;;;;;;;22.66;nan;100884.91;31606044;28;20044;-77
2023/06/05 22:18:42;;;;;;;4.70;2.25;;;;;;;22.56;nan;100880.75;31608690;28;20497;-77
2023/06/05 22:33:44;;;;;;;7.63;2.90;;;;;;;22.39;nan;100872.22;31614047;28;20052;-77
2023/06/05 22:48:47;;;;;;;7.40;2.53;;;;;;;22.26;nan;100891.13;31620445;28;20512;-79
2023/06/05 23:03:50;;;;;;;4.93;2.40;;;;;;;22.05;nan;100898.59;31598931;28;20059;-78
2023/06/05 23:18:52;;;;;;;4.32;2.50;;;;;;;21.73;nan;100897.53;31611006;28;20048;-79
2023/06/05 23:33:54;;;;;;;5.97;2.30;;;;;;;21.22;nan;100904.13;31599552;28;20066;-77
2023/06/05 23:48:58;;;;;;;5.27;2.23;;;;;;;21.11;nan;100901.13;31601860;28;20417;-78
